createdAt,value
2023-03-22T00:00:01.974Z,35.13
2023-03-22T00:03:06.354Z,36.38
2023-03-22T00:06:10.796Z,36.90
2023-03-22T00:09:15.690Z,35.83
2023-03-22T00:12:20.725Z,33.97
2023-03-22T00:15:25.372Z,34.85
2023-03-22T00:21:33.795Z,34.47
2023-03-22T00:27:42.403Z,33.60
2023-03-22T00:30:56.480Z,34.03
2023-03-22T00:34:00.654Z,31.88
2023-03-22T00:37:05.168Z,33.20
2023-03-22T00:40:12.843Z,32.88
2023-03-22T00:43:17.613Z,33.42
2023-03-22T00:46:22.569Z,32.63
2023-03-22T00:49:27.305Z,32.80
2023-03-22T00:52:34.520Z,31.85
2023-03-22T00:55:39.048Z,31.35
2023-03-22T00:58:48.126Z,31.63
2023-03-22T01:01:58.372Z,28.83
2023-03-22T01:05:05.034Z,30.40
2023-03-22T01:08:10.586Z,30.90
2023-03-22T01:11:18.418Z,29.38
2023-03-22T01:14:25.859Z,29.98
2023-03-22T01:17:32.050Z,29.50
2023-03-22T01:20:40.497Z,30.02
2023-03-22T01:23:50.423Z,30.02
2023-03-22T01:27:14.933Z,30.00
2023-03-22T01:30:20.287Z,31.70
2023-03-22T01:33:34.106Z,29.67
2023-03-22T01:36:47.758Z,30.90
2023-03-22T01:39:51.921Z,29.85
2023-03-22T01:42:56.775Z,31.70
2023-03-22T01:46:04.300Z,31.60
2023-03-22T01:49:31.097Z,31.92
2023-03-22T01:52:37.651Z,32.17
2023-03-22T01:55:46.144Z,30.25
2023-03-22T01:58:52.678Z,32.38
2023-03-22T02:02:03.314Z,31.42
2023-03-22T02:05:09.086Z,32.25
2023-03-22T02:08:15.522Z,31.80
2023-03-22T02:11:30.781Z,30.60
2023-03-22T02:15:02.960Z,31.42
2023-03-22T02:18:42.684Z,31.70
2023-03-22T02:22:04.955Z,31.05
2023-03-22T02:25:34.029Z,31.77
2023-03-22T02:29:12.711Z,31.40
2023-03-22T02:32:16.765Z,31.55
2023-03-22T02:35:51.435Z,32.03
2023-03-22T02:39:36.309Z,32.95
2023-03-22T02:42:59.385Z,32.65
2023-03-22T02:46:49.405Z,33.35
2023-03-22T02:50:07.016Z,32.88
2023-03-22T02:53:31.104Z,34.13
2023-03-22T02:56:48.384Z,36.80
2023-03-22T02:59:54.507Z,35.42
2023-03-22T03:03:11.421Z,33.40
2023-03-22T03:06:22.036Z,36.53
2023-03-22T03:09:27.411Z,35.35
2023-03-22T03:12:35.478Z,33.72
2023-03-22T03:15:44.260Z,35.15
2023-03-22T03:19:07.972Z,34.55
2023-03-22T03:22:42.717Z,33.60
2023-03-22T03:26:16.421Z,34.08
2023-03-22T03:29:44.875Z,32.65
2023-03-22T03:33:03.677Z,35.55
2023-03-22T03:36:16.772Z,32.70
2023-03-22T03:39:24.280Z,32.42
2023-03-22T03:42:30.585Z,32.75
2023-03-22T03:45:37.784Z,32.95
2023-03-22T03:48:48.316Z,34.67
2023-03-22T03:51:55.704Z,32.20
2023-03-22T03:55:00.183Z,31.05
2023-03-22T03:58:04.882Z,32.67
2023-03-22T04:01:09.093Z,31.88
2023-03-22T04:07:18.673Z,31.30
2023-03-22T04:10:23.387Z,31.38
2023-03-22T04:13:28.047Z,31.40
2023-03-22T04:16:33.667Z,30.38
2023-03-22T04:19:38.329Z,31.63
2023-03-22T04:22:44.173Z,30.48
2023-03-22T04:25:50.465Z,30.33
2023-03-22T04:28:54.920Z,31.13
2023-03-22T04:31:59.321Z,32.10
2023-03-22T04:35:06.473Z,28.83
2023-03-22T04:38:10.777Z,30.80
2023-03-22T04:41:15.109Z,29.02
2023-03-22T04:44:20.867Z,30.15
2023-03-22T04:47:27.737Z,30.45
2023-03-22T04:50:32.039Z,31.58
2023-03-22T04:53:40.146Z,30.23
2023-03-22T04:56:44.240Z,30.55
2023-03-22T04:59:49.677Z,30.85
2023-03-22T05:02:54.163Z,28.33
2023-03-22T05:06:03.000Z,30.10
2023-03-22T05:09:08.095Z,28.92
2023-03-22T05:12:12.585Z,27.55
2023-03-22T05:15:17.943Z,28.63
2023-03-22T05:18:27.654Z,28.65
2023-03-22T05:21:36.939Z,28.38
2023-03-22T05:24:41.593Z,28.50
2023-03-22T05:27:46.119Z,27.73
2023-03-22T05:30:51.949Z,27.08
2023-03-22T05:33:56.603Z,26.10
2023-03-22T05:37:01.688Z,26.38
2023-03-22T05:40:10.058Z,24.55
2023-03-22T05:43:16.750Z,24.00
2023-03-22T05:46:21.477Z,23.45
2023-03-22T05:49:28.176Z,24.20
2023-03-22T05:52:32.482Z,22.25
2023-03-22T05:55:37.365Z,23.67
2023-03-22T05:58:42.443Z,21.90
2023-03-22T06:01:47.755Z,21.70
2023-03-22T06:04:54.559Z,21.73
2023-03-22T06:07:59.515Z,21.27
2023-03-22T06:11:04.281Z,21.15
2023-03-22T06:14:08.740Z,19.88
2023-03-22T06:17:12.907Z,21.10
2023-03-22T06:20:20.389Z,19.80
2023-03-22T06:23:25.701Z,19.27
2023-03-22T06:26:30.441Z,19.60
2023-03-22T06:29:35.204Z,17.85
2023-03-22T06:32:39.642Z,17.10
2023-03-22T06:35:43.968Z,16.58
2023-03-22T06:38:52.281Z,17.95
2023-03-22T06:41:57.888Z,16.67
2023-03-22T06:45:08.397Z,15.70
2023-03-22T06:48:13.708Z,15.55
2023-03-22T06:51:24.518Z,15.48
2023-03-22T06:54:28.946Z,15.40
2023-03-22T06:57:33.510Z,14.27
2023-03-22T07:00:39.600Z,14.27
2023-03-22T07:03:45.684Z,13.93
2023-03-22T07:06:50.294Z,14.88
2023-03-22T07:09:54.442Z,14.48
2023-03-22T07:12:58.926Z,13.90
2023-03-22T07:16:06.576Z,13.80
2023-03-22T07:19:13.761Z,14.27
2023-03-22T07:22:23.021Z,14.40
2023-03-22T07:25:31.493Z,12.65
2023-03-22T07:28:37.199Z,12.25
2023-03-22T07:35:08.591Z,11.25
2023-03-22T07:38:13.216Z,12.13
2023-03-22T07:41:22.562Z,11.93
2023-03-22T07:44:28.746Z,11.75
2023-03-22T07:47:40.849Z,11.60
2023-03-22T07:50:46.895Z,11.70
2023-03-22T07:53:52.817Z,12.10
2023-03-22T07:56:59.625Z,13.00
2023-03-22T08:00:11.501Z,12.77
2023-03-22T08:03:16.241Z,12.50
2023-03-22T08:06:28.077Z,13.13
2023-03-22T08:09:35.668Z,13.13
2023-03-22T08:12:41.560Z,13.18
2023-03-22T08:15:48.950Z,13.45
2023-03-22T08:18:56.646Z,14.43
2023-03-22T08:22:03.603Z,13.88
2023-03-22T08:25:14.250Z,14.70
2023-03-22T08:28:31.883Z,13.27
2023-03-22T08:31:41.616Z,14.45
2023-03-22T08:34:52.989Z,14.98
2023-03-22T08:37:57.370Z,15.38
2023-03-22T08:41:06.130Z,14.15
2023-03-22T08:44:25.396Z,13.98
2023-03-22T08:47:38.775Z,13.88
2023-03-22T08:57:38.945Z,14.40
2023-03-22T09:00:49.452Z,14.07
2023-03-22T09:03:56.633Z,13.43
2023-03-22T09:07:09.210Z,14.67
2023-03-22T09:10:13.922Z,13.70
2023-03-22T09:13:18.796Z,13.02
2023-03-22T09:16:23.650Z,13.68
2023-03-22T09:19:31.902Z,13.10
2023-03-22T09:22:37.469Z,12.55
2023-03-22T09:25:47.057Z,12.50
2023-03-22T09:28:52.576Z,12.70
2023-03-22T09:32:01.682Z,12.35
2023-03-22T09:35:26.895Z,11.93
2023-03-22T09:38:35.412Z,11.50
2023-03-22T09:41:53.972Z,11.52
2023-03-22T09:45:01.285Z,12.38
2023-03-22T09:48:27.731Z,12.85
2023-03-22T09:51:51.555Z,11.55
2023-03-22T09:54:56.127Z,12.27
2023-03-22T09:58:26.594Z,11.10
2023-03-22T10:01:50.615Z,11.80
2023-03-22T10:05:09.491Z,11.27
2023-03-22T10:08:26.040Z,10.77
2023-03-22T10:11:36.419Z,11.38
2023-03-22T10:14:49.972Z,11.68
2023-03-22T10:17:56.484Z,11.38
2023-03-22T10:21:21.700Z,11.35
2023-03-22T10:27:54.549Z,10.63
2023-03-22T10:31:02.278Z,11.10
2023-03-22T10:34:36.057Z,10.50
2023-03-22T10:37:51.738Z,10.17
2023-03-22T10:41:13.265Z,10.85
2023-03-22T10:44:26.289Z,10.18
2023-03-22T10:52:33.116Z,10.23
2023-03-22T10:56:28.517Z,10.45
2023-03-22T11:00:21.291Z,8.82
2023-03-22T11:04:08.666Z,8.68
2023-03-22T11:07:38.177Z,8.75
2023-03-22T11:11:08.171Z,7.40
2023-03-22T11:14:32.927Z,7.13
2023-03-22T11:17:45.756Z,7.13
2023-03-22T11:21:07.623Z,7.25
2023-03-22T11:24:18.870Z,6.93
2023-03-22T11:28:40.818Z,5.57
